sensor_id;sensor_type;location;lat;lon;timestamp;P1;durP1;ratioP1;P2;durP2;ratioP2
11313;SDS011;5712;48.858;9.206;2022-09-27T00:01:41;1.20;;;1.10;;
11313;SDS011;5712;48.858;9.206;2022-09-27T00:04:09;1.60;;;1.33;;
11313;SDS011;5712;48.858;9.206;2022-09-27T00:06:36;1.20;;;1.07;;
11313;SDS011;5712;48.858;9.206;2022-09-27T00:09:03;1.57;;;1.00;;
11313;SDS011;5712;48.858;9.206;2022-09-27T00:11:31;1.10;;;1.00;;
11313;SDS011;5712;48.858;9.206;2022-09-27T00:13:59;2.10;;;0.97;;
11313;SDS011;5712;48.858;9.206;2022-09-27T00:16:28;2.13;;;0.97;;
11313;SDS011;5712;48.858;9.206;2022-09-27T00:18:58;0.80;;;0.80;;
11313;SDS011;5712;48.858;9.206;2022-09-27T00:21:26;1.23;;;1.00;;
11313;SDS011;5712;48.858;9.206;2022-09-27T00:23:54;1.17;;;1.00;;
11313;SDS011;5712;48.858;9.206;2022-09-27T00:26:21;1.30;;;1.20;;
11313;SDS011;5712;48.858;9.206;2022-09-27T00:28:48;1.63;;;0.97;;
11313;SDS011;5712;48.858;9.206;2022-09-27T00:31:18;0.90;;;0.90;;
11313;SDS011;5712;48.858;9.206;2022-09-27T00:33:47;0.97;;;0.97;;
11313;SDS011;5712;48.858;9.206;2022-09-27T00:36:16;1.10;;;1.00;;
11313;SDS011;5712;48.858;9.206;2022-09-27T00:38:44;2.00;;;1.20;;
11313;SDS011;5712;48.858;9.206;2022-09-27T00:41:12;0.97;;;0.80;;
11313;SDS011;5712;48.858;9.206;2022-09-27T00:43:45;0.80;;;0.80;;
11313;SDS011;5712;48.858;9.206;2022-09-27T00:46:17;0.93;;;0.90;;
11313;SDS011;5712;48.858;9.206;2022-09-27T00:48:48;2.07;;;0.90;;
11313;SDS011;5712;48.858;9.206;2022-09-27T00:51:25;0.87;;;0.87;;
11313;SDS011;5712;48.858;9.206;2022-09-27T00:53:53;1.60;;;0.90;;
11313;SDS011;5712;48.858;9.206;2022-09-27T00:56:24;1.10;;;0.93;;
11313;SDS011;5712;48.858;9.206;2022-09-27T00:58:55;0.80;;;0.80;;
11313;SDS011;5712;48.858;9.206;2022-09-27T01:01:24;1.03;;;0.80;;
11313;SDS011;5712;48.858;9.206;2022-09-27T01:03:55;0.80;;;0.80;;
11313;SDS011;5712;48.858;9.206;2022-09-27T01:06:28;1.00;;;0.90;;
11313;SDS011;5712;48.858;9.206;2022-09-27T01:08:55;0.80;;;0.80;;
11313;SDS011;5712;48.858;9.206;2022-09-27T01:11:27;1.00;;;0.80;;
11313;SDS011;5712;48.858;9.206;2022-09-27T01:14:09;0.73;;;0.73;;
11313;SDS011;5712;48.858;9.206;2022-09-27T01:16:56;1.10;;;0.70;;
11313;SDS011;5712;48.858;9.206;2022-09-27T01:19:42;0.60;;;0.60;;
11313;SDS011;5712;48.858;9.206;2022-09-27T01:22:26;1.57;;;0.83;;
11313;SDS011;5712;48.858;9.206;2022-09-27T01:25:06;0.80;;;0.80;;
11313;SDS011;5712;48.858;9.206;2022-09-27T01:28:04;0.87;;;0.87;;
11313;SDS011;5712;48.858;9.206;2022-09-27T01:30:47;0.97;;;0.80;;
11313;SDS011;5712;48.858;9.206;2022-09-27T01:33:30;0.70;;;0.70;;
11313;SDS011;5712;48.858;9.206;2022-09-27T01:36:12;1.10;;;0.70;;
11313;SDS011;5712;48.858;9.206;2022-09-27T01:38:49;1.17;;;0.80;;
11313;SDS011;5712;48.858;9.206;2022-09-27T01:41:26;0.50;;;0.50;;
11313;SDS011;5712;48.858;9.206;2022-09-27T01:44:10;0.83;;;0.70;;
11313;SDS011;5712;48.858;9.206;2022-09-27T01:46:48;1.10;;;1.00;;
11313;SDS011;5712;48.858;9.206;2022-09-27T01:49:21;2.10;;;0.70;;
11313;SDS011;5712;48.858;9.206;2022-09-27T01:51:52;0.77;;;0.77;;
11313;SDS011;5712;48.858;9.206;2022-09-27T01:54:26;1.00;;;0.70;;
11313;SDS011;5712;48.858;9.206;2022-09-27T01:56:59;0.73;;;0.70;;
11313;SDS011;5712;48.858;9.206;2022-09-27T01:59:30;1.23;;;0.73;;
11313;SDS011;5712;48.858;9.206;2022-09-27T02:02:02;1.27;;;0.90;;
11313;SDS011;5712;48.858;9.206;2022-09-27T02:04:32;1.83;;;1.07;;
11313;SDS011;5712;48.858;9.206;2022-09-27T02:07:04;1.90;;;0.70;;
11313;SDS011;5712;48.858;9.206;2022-09-27T02:09:37;0.70;;;0.70;;
11313;SDS011;5712;48.858;9.206;2022-09-27T02:12:07;1.83;;;1.00;;
11313;SDS011;5712;48.858;9.206;2022-09-27T02:14:39;1.00;;;0.80;;
11313;SDS011;5712;48.858;9.206;2022-09-27T02:17:14;1.87;;;0.80;;
11313;SDS011;5712;48.858;9.206;2022-09-27T02:19:51;1.50;;;0.93;;
11313;SDS011;5712;48.858;9.206;2022-09-27T02:22:31;3.23;;;1.40;;
11313;SDS011;5712;48.858;9.206;2022-09-27T02:25:01;2.07;;;0.83;;
11313;SDS011;5712;48.858;9.206;2022-09-27T02:27:37;1.23;;;1.00;;
11313;SDS011;5712;48.858;9.206;2022-09-27T02:30:12;2.60;;;0.93;;
11313;SDS011;5712;48.858;9.206;2022-09-27T02:32:41;1.27;;;0.90;;
11313;SDS011;5712;48.858;9.206;2022-09-27T02:35:10;2.50;;;1.00;;
11313;SDS011;5712;48.858;9.206;2022-09-27T02:37:40;2.63;;;0.80;;
11313;SDS011;5712;48.858;9.206;2022-09-27T02:40:08;2.10;;;0.90;;
11313;SDS011;5712;48.858;9.206;2022-09-27T02:42:35;1.23;;;0.80;;
11313;SDS011;5712;48.858;9.206;2022-09-27T02:45:04;1.30;;;0.80;;
11313;SDS011;5712;48.858;9.206;2022-09-27T02:47:38;0.80;;;0.77;;
11313;SDS011;5712;48.858;9.206;2022-09-27T02:50:23;0.80;;;0.80;;
11313;SDS011;5712;48.858;9.206;2022-09-27T02:53:09;2.57;;;0.90;;
11313;SDS011;5712;48.858;9.206;2022-09-27T02:55:47;0.63;;;0.50;;
11313;SDS011;5712;48.858;9.206;2022-09-27T02:58:22;1.20;;;0.83;;
11313;SDS011;5712;48.858;9.206;2022-09-27T03:01:03;1.77;;;1.10;;
11313;SDS011;5712;48.858;9.206;2022-09-27T03:03:41;1.17;;;0.70;;
11313;SDS011;5712;48.858;9.206;2022-09-27T03:06:13;0.80;;;0.80;;
11313;SDS011;5712;48.858;9.206;2022-09-27T03:08:43;3.00;;;0.87;;
11313;SDS011;5712;48.858;9.206;2022-09-27T03:11:11;3.40;;;1.00;;
11313;SDS011;5712;48.858;9.206;2022-09-27T03:13:38;1.80;;;0.90;;
11313;SDS011;5712;48.858;9.206;2022-09-27T03:16:05;2.67;;;1.00;;
11313;SDS011;5712;48.858;9.206;2022-09-27T03:18:32;3.77;;;1.30;;
11313;SDS011;5712;48.858;9.206;2022-09-27T03:21:00;2.30;;;1.00;;
11313;SDS011;5712;48.858;9.206;2022-09-27T03:23:27;2.77;;;1.37;;
11313;SDS011;5712;48.858;9.206;2022-09-27T03:25:54;3.37;;;1.30;;
11313;SDS011;5712;48.858;9.206;2022-09-27T03:28:21;4.43;;;1.30;;
11313;SDS011;5712;48.858;9.206;2022-09-27T03:30:49;3.10;;;1.33;;
11313;SDS011;5712;48.858;9.206;2022-09-27T03:33:15;3.20;;;1.50;;
11313;SDS011;5712;48.858;9.206;2022-09-27T03:35:42;4.63;;;1.50;;
11313;SDS011;5712;48.858;9.206;2022-09-27T03:38:10;2.50;;;1.50;;
11313;SDS011;5712;48.858;9.206;2022-09-27T03:40:37;3.83;;;1.30;;
11313;SDS011;5712;48.858;9.206;2022-09-27T03:43:04;3.73;;;1.50;;
11313;SDS011;5712;48.858;9.206;2022-09-27T03:45:31;3.20;;;1.60;;
11313;SDS011;5712;48.858;9.206;2022-09-27T03:47:58;3.53;;;1.57;;
11313;SDS011;5712;48.858;9.206;2022-09-27T03:50:24;2.50;;;1.47;;
11313;SDS011;5712;48.858;9.206;2022-09-27T03:52:51;2.90;;;1.60;;
11313;SDS011;5712;48.858;9.206;2022-09-27T03:55:20;4.77;;;1.77;;
11313;SDS011;5712;48.858;9.206;2022-09-27T03:57:47;2.87;;;1.77;;
11313;SDS011;5712;48.858;9.206;2022-09-27T04:00:14;3.37;;;1.60;;
11313;SDS011;5712;48.858;9.206;2022-09-27T04:02:41;2.57;;;2.10;;
11313;SDS011;5712;48.858;9.206;2022-09-27T04:05:08;3.80;;;1.83;;
11313;SDS011;5712;48.858;9.206;2022-09-27T04:07:35;3.47;;;1.80;;
11313;SDS011;5712;48.858;9.206;2022-09-27T04:10:02;3.50;;;2.00;;
11313;SDS011;5712;48.858;9.206;2022-09-27T04:12:31;3.20;;;2.37;;
11313;SDS011;5712;48.858;9.206;2022-09-27T04:14:58;2.33;;;1.60;;
11313;SDS011;5712;48.858;9.206;2022-09-27T04:17:25;2.83;;;1.90;;
11313;SDS011;5712;48.858;9.206;2022-09-27T04:19:51;3.50;;;2.17;;
11313;SDS011;5712;48.858;9.206;2022-09-27T04:22:18;2.60;;;1.90;;
11313;SDS011;5712;48.858;9.206;2022-09-27T04:24:45;3.97;;;1.90;;
11313;SDS011;5712;48.858;9.206;2022-09-27T04:27:12;4.77;;;2.10;;
11313;SDS011;5712;48.858;9.206;2022-09-27T04:29:40;4.20;;;2.10;;
11313;SDS011;5712;48.858;9.206;2022-09-27T04:32:09;5.17;;;2.30;;
11313;SDS011;5712;48.858;9.206;2022-09-27T04:34:36;5.80;;;2.13;;
11313;SDS011;5712;48.858;9.206;2022-09-27T04:37:21;3.37;;;2.13;;
11313;SDS011;5712;48.858;9.206;2022-09-27T04:39:47;4.03;;;2.30;;
11313;SDS011;5712;48.858;9.206;2022-09-27T04:42:14;3.37;;;2.20;;
11313;SDS011;5712;48.858;9.206;2022-09-27T04:44:43;6.03;;;2.00;;
11313;SDS011;5712;48.858;9.206;2022-09-27T04:47:11;5.57;;;2.23;;
11313;SDS011;5712;48.858;9.206;2022-09-27T04:49:38;4.83;;;2.07;;
11313;SDS011;5712;48.858;9.206;2022-09-27T04:52:05;7.07;;;2.13;;
11313;SDS011;5712;48.858;9.206;2022-09-27T04:54:32;3.43;;;1.70;;
11313;SDS011;5712;48.858;9.206;2022-09-27T04:56:58;3.27;;;1.90;;
11313;SDS011;5712;48.858;9.206;2022-09-27T04:59:25;7.00;;;2.17;;
11313;SDS011;5712;48.858;9.206;2022-09-27T05:01:53;5.87;;;2.07;;
11313;SDS011;5712;48.858;9.206;2022-09-27T05:04:23;6.23;;;1.97;;
11313;SDS011;5712;48.858;9.206;2022-09-27T05:06:50;3.43;;;1.60;;
11313;SDS011;5712;48.858;9.206;2022-09-27T05:09:17;6.73;;;2.07;;
11313;SDS011;5712;48.858;9.206;2022-09-27T05:11:43;5.93;;;2.07;;
11313;SDS011;5712;48.858;9.206;2022-09-27T05:14:10;4.33;;;1.70;;
11313;SDS011;5712;48.858;9.206;2022-09-27T05:16:38;2.83;;;1.43;;
11313;SDS011;5712;48.858;9.206;2022-09-27T05:19:06;2.17;;;1.53;;
11313;SDS011;5712;48.858;9.206;2022-09-27T05:21:33;6.10;;;1.60;;
11313;SDS011;5712;48.858;9.206;2022-09-27T05:23:59;3.30;;;1.30;;
11313;SDS011;5712;48.858;9.206;2022-09-27T05:26:26;3.10;;;1.50;;
11313;SDS011;5712;48.858;9.206;2022-09-27T05:28:53;4.57;;;1.37;;
11313;SDS011;5712;48.858;9.206;2022-09-27T05:31:20;2.07;;;1.23;;
11313;SDS011;5712;48.858;9.206;2022-09-27T05:33:47;2.43;;;1.40;;
11313;SDS011;5712;48.858;9.206;2022-09-27T05:36:15;2.63;;;1.60;;
11313;SDS011;5712;48.858;9.206;2022-09-27T05:38:41;3.60;;;1.30;;
11313;SDS011;5712;48.858;9.206;2022-09-27T05:41:08;2.60;;;1.47;;
11313;SDS011;5712;48.858;9.206;2022-09-27T05:43:35;1.87;;;1.43;;
11313;SDS011;5712;48.858;9.206;2022-09-27T05:46:02;1.87;;;1.10;;
11313;SDS011;5712;48.858;9.206;2022-09-27T05:48:30;3.07;;;1.20;;
11313;SDS011;5712;48.858;9.206;2022-09-27T05:50:57;2.57;;;1.67;;
11313;SDS011;5712;48.858;9.206;2022-09-27T05:53:25;3.87;;;1.57;;
11313;SDS011;5712;48.858;9.206;2022-09-27T05:55:53;1.60;;;1.50;;
11313;SDS011;5712;48.858;9.206;2022-09-27T05:58:19;3.87;;;1.40;;
11313;SDS011;5712;48.858;9.206;2022-09-27T06:00:46;2.67;;;1.40;;
11313;SDS011;5712;48.858;9.206;2022-09-27T06:03:13;1.23;;;1.00;;
11313;SDS011;5712;48.858;9.206;2022-09-27T06:05:40;2.27;;;1.57;;
11313;SDS011;5712;48.858;9.206;2022-09-27T06:08:07;3.83;;;1.67;;
11313;SDS011;5712;48.858;9.206;2022-09-27T06:10:37;2.30;;;1.30;;
11313;SDS011;5712;48.858;9.206;2022-09-27T06:13:05;3.53;;;1.47;;
11313;SDS011;5712;48.858;9.206;2022-09-27T06:15:34;1.57;;;1.30;;
11313;SDS011;5712;48.858;9.206;2022-09-27T06:18:03;1.93;;;1.33;;
11313;SDS011;5712;48.858;9.206;2022-09-27T06:20:31;1.47;;;1.37;;
11313;SDS011;5712;48.858;9.206;2022-09-27T06:23:02;4.83;;;1.23;;
11313;SDS011;5712;48.858;9.206;2022-09-27T06:25:31;2.03;;;1.10;;
11313;SDS011;5712;48.858;9.206;2022-09-27T06:28:00;4.30;;;1.60;;
11313;SDS011;5712;48.858;9.206;2022-09-27T06:30:27;1.83;;;1.33;;
11313;SDS011;5712;48.858;9.206;2022-09-27T06:32:54;1.40;;;1.20;;
11313;SDS011;5712;48.858;9.206;2022-09-27T06:35:23;3.20;;;1.20;;
11313;SDS011;5712;48.858;9.206;2022-09-27T06:37:50;2.47;;;1.30;;
11313;SDS011;5712;48.858;9.206;2022-09-27T06:40:17;1.70;;;1.30;;
11313;SDS011;5712;48.858;9.206;2022-09-27T06:42:44;2.23;;;1.33;;
11313;SDS011;5712;48.858;9.206;2022-09-27T06:45:12;2.50;;;1.20;;
11313;SDS011;5712;48.858;9.206;2022-09-27T06:47:39;2.57;;;1.07;;
11313;SDS011;5712;48.858;9.206;2022-09-27T06:50:06;1.27;;;1.00;;
11313;SDS011;5712;48.858;9.206;2022-09-27T06:52:34;1.00;;;0.90;;
11313;SDS011;5712;48.858;9.206;2022-09-27T06:55:01;3.10;;;1.00;;
11313;SDS011;5712;48.858;9.206;2022-09-27T06:57:29;1.53;;;0.70;;
11313;SDS011;5712;48.858;9.206;2022-09-27T07:00:14;1.37;;;0.80;;
11313;SDS011;5712;48.858;9.206;2022-09-27T07:02:50;0.70;;;0.70;;
11313;SDS011;5712;48.858;9.206;2022-09-27T07:05:18;0.80;;;0.80;;
11313;SDS011;5712;48.858;9.206;2022-09-27T07:07:45;1.40;;;0.70;;
11313;SDS011;5712;48.858;9.206;2022-09-27T07:10:13;1.00;;;0.77;;
11313;SDS011;5712;48.858;9.206;2022-09-27T07:12:42;1.00;;;0.80;;
11313;SDS011;5712;48.858;9.206;2022-09-27T07:15:12;1.70;;;0.70;;
11313;SDS011;5712;48.858;9.206;2022-09-27T07:17:41;1.17;;;0.70;;
11313;SDS011;5712;48.858;9.206;2022-09-27T07:20:08;1.07;;;0.80;;
11313;SDS011;5712;48.858;9.206;2022-09-27T07:22:38;1.17;;;0.70;;
11313;SDS011;5712;48.858;9.206;2022-09-27T07:25:06;0.50;;;0.50;;
11313;SDS011;5712;48.858;9.206;2022-09-27T07:27:33;1.97;;;0.70;;
11313;SDS011;5712;48.858;9.206;2022-09-27T07:30:00;1.50;;;0.60;;
11313;SDS011;5712;48.858;9.206;2022-09-27T07:32:27;0.97;;;0.57;;
11313;SDS011;5712;48.858;9.206;2022-09-27T07:34:55;1.27;;;0.60;;
11313;SDS011;5712;48.858;9.206;2022-09-27T07:37:22;0.90;;;0.73;;
11313;SDS011;5712;48.858;9.206;2022-09-27T07:39:49;0.80;;;0.50;;
11313;SDS011;5712;48.858;9.206;2022-09-27T07:42:15;1.77;;;0.80;;
11313;SDS011;5712;48.858;9.206;2022-09-27T07:44:42;0.70;;;0.70;;
11313;SDS011;5712;48.858;9.206;2022-09-27T07:47:09;0.63;;;0.60;;
11313;SDS011;5712;48.858;9.206;2022-09-27T07:49:36;1.17;;;0.80;;
11313;SDS011;5712;48.858;9.206;2022-09-27T07:52:04;1.80;;;0.80;;
11313;SDS011;5712;48.858;9.206;2022-09-27T07:54:30;0.73;;;0.73;;
11313;SDS011;5712;48.858;9.206;2022-09-27T07:56:57;1.20;;;0.97;;
11313;SDS011;5712;48.858;9.206;2022-09-27T07:59:24;1.20;;;1.00;;
11313;SDS011;5712;48.858;9.206;2022-09-27T08:01:52;1.97;;;1.20;;
11313;SDS011;5712;48.858;9.206;2022-09-27T08:04:19;1.70;;;1.00;;
11313;SDS011;5712;48.858;9.206;2022-09-27T08:06:46;3.20;;;1.57;;
11313;SDS011;5712;48.858;9.206;2022-09-27T08:09:14;1.67;;;1.10;;
11313;SDS011;5712;48.858;9.206;2022-09-27T08:11:41;1.73;;;1.20;;
11313;SDS011;5712;48.858;9.206;2022-09-27T08:14:10;1.30;;;1.20;;
11313;SDS011;5712;48.858;9.206;2022-09-27T08:16:37;1.77;;;1.47;;
11313;SDS011;5712;48.858;9.206;2022-09-27T08:19:04;1.83;;;1.23;;
11313;SDS011;5712;48.858;9.206;2022-09-27T08:21:30;2.70;;;1.30;;
11313;SDS011;5712;48.858;9.206;2022-09-27T08:23:57;1.33;;;1.10;;
11313;SDS011;5712;48.858;9.206;2022-09-27T08:26:27;1.50;;;1.40;;
11313;SDS011;5712;48.858;9.206;2022-09-27T08:28:54;1.70;;;1.37;;
11313;SDS011;5712;48.858;9.206;2022-09-27T08:31:20;3.00;;;1.10;;
11313;SDS011;5712;48.858;9.206;2022-09-27T08:33:49;1.20;;;1.00;;
11313;SDS011;5712;48.858;9.206;2022-09-27T08:36:17;2.53;;;1.00;;
11313;SDS011;5712;48.858;9.206;2022-09-27T08:38:47;1.80;;;0.87;;
11313;SDS011;5712;48.858;9.206;2022-09-27T08:41:15;1.37;;;1.00;;
11313;SDS011;5712;48.858;9.206;2022-09-27T08:43:59;1.50;;;0.90;;
11313;SDS011;5712;48.858;9.206;2022-09-27T08:46:44;2.30;;;0.77;;
11313;SDS011;5712;48.858;9.206;2022-09-27T08:49:20;1.70;;;0.90;;
11313;SDS011;5712;48.858;9.206;2022-09-27T08:51:52;1.37;;;0.83;;
11313;SDS011;5712;48.858;9.206;2022-09-27T08:54:20;1.93;;;0.87;;
11313;SDS011;5712;48.858;9.206;2022-09-27T08:56:49;2.10;;;0.93;;
11313;SDS011;5712;48.858;9.206;2022-09-27T08:59:21;1.43;;;1.07;;
11313;SDS011;5712;48.858;9.206;2022-09-27T09:01:52;1.40;;;1.10;;
11313;SDS011;5712;48.858;9.206;2022-09-27T09:04:21;1.90;;;1.00;;
11313;SDS011;5712;48.858;9.206;2022-09-27T09:06:54;3.07;;;1.40;;
11313;SDS011;5712;48.858;9.206;2022-09-27T09:09:36;2.27;;;1.30;;
11313;SDS011;5712;48.858;9.206;2022-09-27T09:12:12;2.43;;;1.27;;
11313;SDS011;5712;48.858;9.206;2022-09-27T09:15:15;2.33;;;1.20;;
11313;SDS011;5712;48.858;9.206;2022-09-27T09:17:57;2.13;;;1.20;;
11313;SDS011;5712;48.858;9.206;2022-09-27T09:20:42;2.00;;;;;
11313;SDS011;5712;48.858;9.206;2022-09-27T09:26:28;2.77;;;1.10;;
11313;SDS011;5712;48.858;9.206;2022-09-27T09:29:03;2.00;;;1.10;;
11313;SDS011;5712;48.858;9.206;2022-09-27T09:31:45;1.20;;;1.10;;
11313;SDS011;5712;48.858;9.206;2022-09-27T09:34:17;1.47;;;1.30;;
11313;SDS011;5712;48.858;9.206;2022-09-27T09:36:49;1.80;;;1.10;;
11313;SDS011;5712;48.858;9.206;2022-09-27T09:39:21;1.10;;;1.00;;
11313;SDS011;5712;48.858;9.206;2022-09-27T09:41:58;1.10;;;1.00;;
11313;SDS011;5712;48.858;9.206;2022-09-27T09:44:33;1.30;;;1.10;;
11313;SDS011;5712;48.858;9.206;2022-09-27T09:47:11;1.80;;;1.00;;
11313;SDS011;5712;48.858;9.206;2022-09-27T09:49:43;1.20;;;1.10;;
11313;SDS011;5712;48.858;9.206;2022-09-27T09:52:14;1.17;;;1.00;;
11313;SDS011;5712;48.858;9.206;2022-09-27T09:54:44;1.47;;;1.37;;
11313;SDS011;5712;48.858;9.206;2022-09-27T09:57:14;1.43;;;1.20;;
11313;SDS011;5712;48.858;9.206;2022-09-27T09:59:46;2.50;;;1.30;;
11313;SDS011;5712;48.858;9.206;2022-09-27T10:02:20;2.70;;;1.37;;
11313;SDS011;5712;48.858;9.206;2022-09-27T10:04:53;1.80;;;1.60;;
11313;SDS011;5712;48.858;9.206;2022-09-27T10:07:21;3.17;;;1.50;;
11313;SDS011;5712;48.858;9.206;2022-09-27T10:09:49;3.30;;;1.40;;
11313;SDS011;5712;48.858;9.206;2022-09-27T10:12:17;1.77;;;1.20;;
11313;SDS011;5712;48.858;9.206;2022-09-27T10:14:44;1.50;;;1.33;;
11313;SDS011;5712;48.858;9.206;2022-09-27T10:17:14;2.77;;;1.40;;
11313;SDS011;5712;48.858;9.206;2022-09-27T10:19:45;3.20;;;1.30;;
11313;SDS011;5712;48.858;9.206;2022-09-27T10:22:16;1.67;;;1.40;;
11313;SDS011;5712;48.858;9.206;2022-09-27T10:24:55;1.53;;;1.20;;
11313;SDS011;5712;48.858;9.206;2022-09-27T10:27:23;2.00;;;1.40;;
11313;SDS011;5712;48.858;9.206;2022-09-27T10:29:57;2.70;;;1.17;;
11313;SDS011;5712;48.858;9.206;2022-09-27T10:32:25;2.80;;;1.20;;
11313;SDS011;5712;48.858;9.206;2022-09-27T10:34:56;1.90;;;1.70;;
11313;SDS011;5712;48.858;9.206;2022-09-27T10:37:58;1.23;;;1.10;;
11313;SDS011;5712;48.858;9.206;2022-09-27T10:40:45;1.70;;;1.10;;
11313;SDS011;5712;48.858;9.206;2022-09-27T10:43:21;1.47;;;1.10;;
11313;SDS011;5712;48.858;9.206;2022-09-27T10:45:54;2.97;;;1.10;;
11313;SDS011;5712;48.858;9.206;2022-09-27T10:48:26;1.60;;;1.17;;
11313;SDS011;5712;48.858;9.206;2022-09-27T10:50:57;1.60;;;1.10;;
11313;SDS011;5712;48.858;9.206;2022-09-27T10:53:26;1.23;;;1.00;;
11313;SDS011;5712;48.858;9.206;2022-09-27T10:55:54;2.03;;;1.33;;
11313;SDS011;5712;48.858;9.206;2022-09-27T10:58:24;1.77;;;1.20;;
11313;SDS011;5712;48.858;9.206;2022-09-27T11:00:53;1.30;;;0.93;;
11313;SDS011;5712;48.858;9.206;2022-09-27T11:03:21;1.33;;;0.93;;
11313;SDS011;5712;48.858;9.206;2022-09-27T11:05:50;2.37;;;1.10;;
11313;SDS011;5712;48.858;9.206;2022-09-27T11:08:27;1.23;;;0.97;;
11313;SDS011;5712;48.858;9.206;2022-09-27T11:11:00;1.87;;;1.00;;
11313;SDS011;5712;48.858;9.206;2022-09-27T11:13:30;1.77;;;1.30;;
11313;SDS011;5712;48.858;9.206;2022-09-27T11:18:48;1.23;;;1.10;;
11313;SDS011;5712;48.858;9.206;2022-09-27T11:21:27;2.07;;;1.30;;
11313;SDS011;5712;48.858;9.206;2022-09-27T11:24:13;1.67;;;1.43;;
11313;SDS011;5712;48.858;9.206;2022-09-27T11:26:50;1.73;;;1.00;;
11313;SDS011;5712;48.858;9.206;2022-09-27T11:29:28;1.53;;;1.00;;
11313;SDS011;5712;48.858;9.206;2022-09-27T11:32:05;1.10;;;0.90;;
11313;SDS011;5712;48.858;9.206;2022-09-27T11:34:55;3.10;;;1.30;;
11313;SDS011;5712;48.858;9.206;2022-09-27T11:37:31;2.23;;;1.10;;
11313;SDS011;5712;48.858;9.206;2022-09-27T11:40:12;1.37;;;1.00;;
11313;SDS011;5712;48.858;9.206;2022-09-27T11:42:50;1.33;;;0.97;;
11313;SDS011;5712;48.858;9.206;2022-09-27T11:45:44;1.20;;;1.07;;
11313;SDS011;5712;48.858;9.206;2022-09-27T11:48:22;1.77;;;1.30;;
11313;SDS011;5712;48.858;9.206;2022-09-27T11:51:00;1.00;;;0.90;;
11313;SDS011;5712;48.858;9.206;2022-09-27T11:56:43;2.23;;;1.33;;
11313;SDS011;5712;48.858;9.206;2022-09-27T11:59:25;2.30;;;1.20;;
11313;SDS011;5712;48.858;9.206;2022-09-27T12:02:15;2.80;;;1.20;;
11313;SDS011;5712;48.858;9.206;2022-09-27T12:04:59;3.13;;;1.27;;
11313;SDS011;5712;48.858;9.206;2022-09-27T12:07:39;1.83;;;1.10;;
11313;SDS011;5712;48.858;9.206;2022-09-27T12:10:11;1.50;;;0.90;;
11313;SDS011;5712;48.858;9.206;2022-09-27T12:12:43;2.23;;;1.20;;
11313;SDS011;5712;48.858;9.206;2022-09-27T12:15:16;0.70;;;0.70;;
11313;SDS011;5712;48.858;9.206;2022-09-27T12:17:46;1.27;;;0.80;;
11313;SDS011;5712;48.858;9.206;2022-09-27T12:20:17;1.90;;;0.90;;
11313;SDS011;5712;48.858;9.206;2022-09-27T12:22:49;1.73;;;0.73;;
11313;SDS011;5712;48.858;9.206;2022-09-27T12:25:22;0.60;;;0.50;;
11313;SDS011;5712;48.858;9.206;2022-09-27T12:27:53;1.63;;;0.70;;
11313;SDS011;5712;48.858;9.206;2022-09-27T12:30:26;2.30;;;0.63;;
11313;SDS011;5712;48.858;9.206;2022-09-27T12:32:56;1.20;;;0.50;;
11313;SDS011;5712;48.858;9.206;2022-09-27T12:35:31;0.80;;;0.60;;
11313;SDS011;5712;48.858;9.206;2022-09-27T12:38:08;0.97;;;0.50;;
11313;SDS011;5712;48.858;9.206;2022-09-27T12:40:40;0.87;;;0.60;;
11313;SDS011;5712;48.858;9.206;2022-09-27T12:43:13;2.83;;;0.70;;
11313;SDS011;5712;48.858;9.206;2022-09-27T12:45:53;0.90;;;0.60;;
11313;SDS011;5712;48.858;9.206;2022-09-27T12:48:31;2.00;;;0.50;;
11313;SDS011;5712;48.858;9.206;2022-09-27T12:51:06;1.13;;;0.70;;
11313;SDS011;5712;48.858;9.206;2022-09-27T12:53:38;0.70;;;0.60;;
11313;SDS011;5712;48.858;9.206;2022-09-27T12:56:21;1.77;;;0.80;;
11313;SDS011;5712;48.858;9.206;2022-09-27T12:59:10;1.00;;;0.67;;
11313;SDS011;5712;48.858;9.206;2022-09-27T13:02:11;1.40;;;1.07;;
11313;SDS011;5712;48.858;9.206;2022-09-27T13:04:54;1.80;;;0.87;;
11313;SDS011;5712;48.858;9.206;2022-09-27T13:07:37;2.33;;;0.80;;
11313;SDS011;5712;48.858;9.206;2022-09-27T13:10:18;2.13;;;0.90;;
11313;SDS011;5712;48.858;9.206;2022-09-27T13:13:14;4.63;;;0.90;;
11313;SDS011;5712;48.858;9.206;2022-09-27T13:15:45;3.53;;;0.80;;
11313;SDS011;5712;48.858;9.206;2022-09-27T13:18:28;7.13;;;1.30;;
11313;SDS011;5712;48.858;9.206;2022-09-27T13:20:56;3.57;;;1.00;;
11313;SDS011;5712;48.858;9.206;2022-09-27T13:26:45;1.57;;;0.97;;
11313;SDS011;5712;48.858;9.206;2022-09-27T13:29:30;2.47;;;1.20;;
11313;SDS011;5712;48.858;9.206;2022-09-27T13:34:46;3.90;;;1.40;;
11313;SDS011;5712;48.858;9.206;2022-09-27T13:40:28;1.37;;;1.07;;
11313;SDS011;5712;48.858;9.206;2022-09-27T13:46:06;2.83;;;1.10;;
11313;SDS011;5712;48.858;9.206;2022-09-27T13:48:45;2.00;;;0.87;;
11313;SDS011;5712;48.858;9.206;2022-09-27T13:51:18;0.93;;;0.70;;
11313;SDS011;5712;48.858;9.206;2022-09-27T13:53:56;4.87;;;1.07;;
11313;SDS011;5712;48.858;9.206;2022-09-27T13:59:19;5.63;;;1.47;;
11313;SDS011;5712;48.858;9.206;2022-09-27T14:01:50;1.13;;;1.00;;
11313;SDS011;5712;48.858;9.206;2022-09-27T14:04:22;2.07;;;0.90;;
11313;SDS011;5712;48.858;9.206;2022-09-27T14:06:54;1.97;;;1.20;;
11313;SDS011;5712;48.858;9.206;2022-09-27T14:09:24;2.23;;;0.80;;
11313;SDS011;5712;48.858;9.206;2022-09-27T14:11:55;1.60;;;1.40;;
11313;SDS011;5712;48.858;9.206;2022-09-27T14:14:26;1.47;;;1.07;;
11313;SDS011;5712;48.858;9.206;2022-09-27T14:16:57;2.20;;;1.07;;
11313;SDS011;5712;48.858;9.206;2022-09-27T14:19:27;2.60;;;1.30;;
11313;SDS011;5712;48.858;9.206;2022-09-27T14:21:54;1.30;;;1.03;;
11313;SDS011;5712;48.858;9.206;2022-09-27T14:24:26;1.20;;;1.00;;
11313;SDS011;5712;48.858;9.206;2022-09-27T14:27:13;2.23;;;0.93;;
11313;SDS011;5712;48.858;9.206;2022-09-27T14:29:44;1.00;;;1.00;;
11313;SDS011;5712;48.858;9.206;2022-09-27T14:32:13;1.10;;;1.00;;
11313;SDS011;5712;48.858;9.206;2022-09-27T14:34:43;1.37;;;1.00;;
11313;SDS011;5712;48.858;9.206;2022-09-27T14:37:13;1.27;;;0.80;;
11313;SDS011;5712;48.858;9.206;2022-09-27T14:39:54;1.23;;;0.97;;
11313;SDS011;5712;48.858;9.206;2022-09-27T14:42:23;1.00;;;0.90;;
11313;SDS011;5712;48.858;9.206;2022-09-27T14:44:52;1.17;;;1.07;;
11313;SDS011;5712;48.858;9.206;2022-09-27T14:47:24;1.20;;;1.00;;
11313;SDS011;5712;48.858;9.206;2022-09-27T14:49:54;1.57;;;1.00;;
11313;SDS011;5712;48.858;9.206;2022-09-27T14:52:24;1.33;;;1.20;;
11313;SDS011;5712;48.858;9.206;2022-09-27T14:54:54;2.77;;;1.40;;
11313;SDS011;5712;48.858;9.206;2022-09-27T14:57:22;1.80;;;1.50;;
11313;SDS011;5712;48.858;9.206;2022-09-27T14:59:51;1.27;;;1.17;;
11313;SDS011;5712;48.858;9.206;2022-09-27T15:02:18;1.33;;;1.20;;
11313;SDS011;5712;48.858;9.206;2022-09-27T15:04:48;1.97;;;1.10;;
11313;SDS011;5712;48.858;9.206;2022-09-27T15:07:17;1.60;;;1.20;;
11313;SDS011;5712;48.858;9.206;2022-09-27T15:09:46;1.50;;;1.00;;
11313;SDS011;5712;48.858;9.206;2022-09-27T15:12:21;1.63;;;1.10;;
11313;SDS011;5712;48.858;9.206;2022-09-27T15:14:50;2.27;;;1.23;;
11313;SDS011;5712;48.858;9.206;2022-09-27T15:17:22;1.63;;;1.20;;
11313;SDS011;5712;48.858;9.206;2022-09-27T15:19:58;2.10;;;1.37;;
11313;SDS011;5712;48.858;9.206;2022-09-27T15:22:34;1.17;;;0.97;;
11313;SDS011;5712;48.858;9.206;2022-09-27T15:25:13;1.40;;;0.90;;
11313;SDS011;5712;48.858;9.206;2022-09-27T15:27:45;2.40;;;1.20;;
11313;SDS011;5712;48.858;9.206;2022-09-27T15:30:15;1.07;;;0.87;;
11313;SDS011;5712;48.858;9.206;2022-09-27T15:32:47;1.00;;;0.87;;
11313;SDS011;5712;48.858;9.206;2022-09-27T15:35:19;2.03;;;0.87;;
11313;SDS011;5712;48.858;9.206;2022-09-27T15:37:50;2.30;;;0.80;;
11313;SDS011;5712;48.858;9.206;2022-09-27T15:43:33;1.83;;;0.90;;
11313;SDS011;5712;48.858;9.206;2022-09-27T15:46:04;1.00;;;0.80;;
11313;SDS011;5712;48.858;9.206;2022-09-27T15:51:46;1.13;;;0.70;;
11313;SDS011;5712;48.858;9.206;2022-09-27T15:54:17;0.80;;;0.60;;
11313;SDS011;5712;48.858;9.206;2022-09-27T15:56:45;1.03;;;0.77;;
11313;SDS011;5712;48.858;9.206;2022-09-27T15:59:15;1.30;;;0.83;;
11313;SDS011;5712;48.858;9.206;2022-09-27T16:01:45;1.07;;;0.80;;